createdAt,value
2023-04-20T00:04:33.648Z,1.3
2023-04-20T00:10:53.649Z,1.3
2023-04-20T00:17:16.564Z,1.4
2023-04-20T00:23:36.529Z,1.4
2023-04-20T00:29:59.570Z,1.5
2023-04-20T00:36:19.724Z,1.5
2023-04-20T00:42:42.576Z,2.4
2023-04-20T00:49:02.703Z,2.4
2023-04-20T00:55:25.623Z,1.9
2023-04-20T01:01:45.669Z,1.9
2023-04-20T01:08:08.656Z,1.7
2023-04-20T01:14:28.629Z,1.7
2023-04-20T01:20:51.562Z,2.6
2023-04-20T01:27:11.617Z,2.6
2023-04-20T01:33:34.549Z,2.1
2023-04-20T01:39:54.561Z,2.1
2023-04-20T01:46:17.599Z,0.9
2023-04-20T01:52:37.728Z,0.9
2023-04-20T01:59:00.683Z,4.1
2023-04-20T02:05:20.631Z,4.1
2023-04-20T02:11:43.685Z,1.6
2023-04-20T02:18:03.647Z,1.6
2023-04-20T02:24:26.668Z,3.5
2023-04-20T02:30:46.591Z,3.5
2023-04-20T02:37:09.538Z,2
2023-04-20T02:43:29.614Z,2
2023-04-20T02:49:52.665Z,1.9
2023-04-20T02:56:12.538Z,1.9
2023-04-20T03:02:35.724Z,2.7
2023-04-20T03:08:55.571Z,2.7
2023-04-20T03:25:23.607Z,3.7
2023-04-20T03:31:43.604Z,3.7
2023-04-20T03:38:06.490Z,3.7
2023-04-20T03:44:26.587Z,3.7
2023-04-20T03:50:49.520Z,3
2023-04-20T03:57:09.536Z,3
2023-04-20T04:03:32.776Z,1.8
2023-04-20T04:09:52.584Z,1.8
2023-04-20T04:16:15.503Z,2.1
2023-04-20T04:22:35.633Z,2.1
2023-04-20T04:28:58.513Z,3.2
2023-04-20T04:35:18.606Z,3.2
2023-04-20T04:41:41.607Z,4.5
2023-04-20T04:48:01.654Z,4.5
2023-04-20T04:54:24.604Z,2.9
2023-04-20T05:00:44.729Z,2.9
2023-04-20T05:07:07.609Z,2.8
2023-04-20T05:13:27.577Z,2.8
2023-04-20T05:19:50.627Z,3.1
2023-04-20T05:26:10.585Z,3.1
2023-04-20T05:32:33.637Z,2.8
2023-04-20T05:38:53.595Z,2.8
2023-04-20T05:45:16.626Z,2.1
2023-04-20T05:51:36.528Z,2.1
2023-04-20T05:57:59.681Z,3.8
2023-04-20T06:04:19.920Z,3.8
2023-04-20T06:10:42.638Z,5.2
2023-04-20T06:17:02.571Z,5.2
2023-04-20T06:23:25.568Z,3.7
2023-04-20T06:29:45.518Z,3.7
2023-04-20T06:36:08.655Z,3.4
2023-04-20T06:42:28.578Z,3.4
2023-04-20T06:48:51.674Z,3.3
2023-04-20T06:55:11.738Z,3.3
2023-04-20T07:01:34.608Z,2.7
2023-04-20T07:07:54.589Z,2.7
2023-04-20T07:14:17.693Z,3.5
2023-04-20T07:20:37.682Z,3.5
2023-04-20T07:27:00.895Z,2.6
2023-04-20T07:33:20.938Z,2.6
2023-04-20T07:39:43.661Z,2.9
2023-04-20T07:46:03.615Z,2.9
2023-04-20T07:52:26.632Z,2.5
2023-04-20T07:58:46.695Z,2.5
2023-04-20T08:05:09.730Z,2.2
2023-04-20T08:11:29.651Z,2.2
2023-04-20T08:34:17.447Z,3.6
2023-04-20T08:40:37.474Z,3.6
2023-04-20T08:47:00.652Z,3.7
2023-04-20T08:53:20.551Z,3.7
2023-04-20T08:59:43.565Z,1.3
2023-04-20T09:06:03.601Z,1.3
2023-04-20T09:12:26.618Z,0.8
2023-04-20T09:18:46.611Z,0.8
2023-04-20T09:25:09.672Z,1.6
2023-04-20T09:31:29.699Z,1.6
2023-04-20T09:37:52.558Z,0.9
2023-04-20T09:44:12.786Z,0.9
2023-04-20T09:50:46.089Z,1.5
2023-04-20T09:56:55.540Z,1.5
2023-04-20T10:03:18.781Z,1.5
2023-04-20T10:09:38.533Z,1.5
2023-04-20T10:16:01.585Z,0.6
2023-04-20T10:22:21.504Z,0.6
2023-04-20T10:28:44.599Z,0.4
2023-04-20T10:35:04.586Z,0.4
2023-04-20T10:41:27.539Z,0.7
2023-04-20T10:47:47.719Z,0.7
2023-04-20T10:54:10.691Z,0.4
2023-04-20T11:00:30.526Z,0.4
2023-04-20T11:06:53.700Z,3.3
2023-04-20T11:13:13.734Z,3.3
2023-04-20T11:19:36.569Z,1.4
2023-04-20T11:25:56.853Z,1.4
2023-04-20T11:32:19.698Z,0.9
2023-04-20T11:38:39.611Z,0.9
2023-04-20T11:45:02.584Z,1.8
2023-04-20T11:51:22.679Z,1.8
2023-04-20T11:57:45.502Z,1.8
2023-04-20T12:04:05.889Z,1.8
2023-04-20T12:10:28.537Z,1.6
2023-04-20T12:16:48.505Z,1.6
2023-04-20T12:23:11.588Z,2.6
2023-04-20T12:29:31.499Z,2.6
2023-04-20T12:35:54.541Z,2.3
2023-04-20T12:42:14.539Z,2.3
2023-04-20T12:48:37.548Z,3.1
2023-04-20T12:54:57.557Z,3.1
2023-04-20T13:01:20.612Z,1.9
2023-04-20T13:07:40.537Z,1.9
2023-04-20T13:14:03.509Z,1
2023-04-20T13:20:23.556Z,1
2023-04-20T13:26:46.504Z,4.2
2023-04-20T13:42:17.481Z,1.8
2023-04-20T13:48:37.501Z,1.8
2023-04-20T13:55:00.504Z,4.7
2023-04-20T14:01:20.631Z,4.7
2023-04-20T14:07:43.578Z,4.7
2023-04-20T14:14:04.264Z,4.7
2023-04-20T14:20:26.719Z,2.7
2023-04-20T14:26:46.604Z,2.7
2023-04-20T14:33:09.621Z,3.4
2023-04-20T14:39:29.586Z,3.4
2023-04-20T14:45:52.632Z,2.2
2023-04-20T14:52:12.502Z,2.2
2023-04-20T14:58:35.547Z,2
2023-04-20T15:04:55.633Z,2
2023-04-20T15:11:18.523Z,2
2023-04-20T15:17:38.574Z,2
2023-04-20T15:24:01.984Z,1.4
2023-04-20T15:30:21.555Z,1.4
2023-04-20T15:36:44.520Z,2.3
2023-04-20T15:43:04.532Z,2.3
2023-04-20T15:49:27.547Z,2.2
2023-04-20T15:55:47.525Z,2.2
2023-04-20T16:02:10.614Z,2.8
2023-04-20T16:08:30.540Z,2.8
2023-04-20T16:14:53.958Z,1.7
2023-04-20T16:21:13.590Z,1.7
2023-04-20T16:27:36.583Z,1.9
2023-04-20T16:33:56.663Z,1.9
2023-04-20T16:40:19.543Z,1.3
2023-04-20T16:46:39.662Z,1.3
2023-04-20T16:53:02.626Z,2.3
2023-04-20T16:59:22.569Z,2.3
2023-04-20T17:05:45.648Z,1.9
2023-04-20T17:12:05.642Z,1.9
2023-04-20T17:18:28.616Z,3.1
2023-04-20T17:24:48.587Z,3.1
2023-04-20T17:31:11.659Z,4.2
2023-04-20T17:37:31.569Z,4.2
2023-04-20T17:43:54.503Z,2.1
2023-04-20T17:50:14.739Z,2.1
2023-04-20T17:56:37.763Z,3.6
2023-04-20T18:02:57.672Z,3.6
2023-04-20T18:09:20.755Z,3.9
2023-04-20T18:15:40.544Z,3.9
2023-04-20T18:22:03.608Z,4.5
2023-04-20T18:28:23.659Z,4.5
2023-04-20T18:34:46.598Z,3.2
2023-04-20T18:41:06.669Z,3.2
2023-04-20T18:58:02.460Z,4.1
2023-04-20T19:04:22.708Z,4.1
2023-04-20T19:10:45.629Z,3.8
2023-04-20T19:17:05.874Z,3.8
2023-04-20T19:23:28.581Z,4.3
2023-04-20T19:29:49.621Z,4.3
2023-04-20T19:36:12.517Z,5.1
2023-04-20T19:42:32.528Z,5.1
2023-04-20T19:48:55.832Z,4.9
2023-04-20T19:55:15.589Z,4.9
2023-04-20T20:01:38.609Z,3.6
2023-04-20T20:07:58.550Z,3.6
2023-04-20T20:14:21.587Z,9.1
2023-04-20T20:20:42.303Z,9.1
2023-04-20T20:27:05.507Z,5.3
2023-04-20T20:33:25.591Z,5.3
2023-04-20T20:39:48.598Z,5.2
2023-04-20T20:46:08.524Z,5.2
2023-04-20T20:52:31.622Z,5.8
2023-04-20T20:58:51.547Z,5.8
2023-04-20T21:05:14.554Z,10.8
2023-04-20T21:11:34.577Z,10.8
2023-04-20T21:17:57.633Z,5.8
2023-04-20T21:24:17.544Z,5.8
2023-04-20T21:30:40.505Z,8.8
2023-04-20T21:37:00.491Z,8.8
2023-04-20T21:43:23.666Z,7.6
2023-04-20T21:49:43.529Z,7.6
2023-04-20T21:56:06.620Z,7.4
2023-04-20T22:02:26.588Z,7.4
2023-04-20T22:25:23.545Z,21
2023-04-20T22:31:43.675Z,21
2023-04-20T22:38:06.498Z,21
2023-04-20T22:44:26.756Z,21
2023-04-20T22:50:49.607Z,9.1
2023-04-20T22:57:09.633Z,9.1
2023-04-20T23:03:32.885Z,9.8
2023-04-20T23:09:52.493Z,9.8
2023-04-20T23:16:15.523Z,7.6
2023-04-20T23:22:35.587Z,7.6
2023-04-20T23:28:58.580Z,7.3
2023-04-20T23:35:18.652Z,7.3
2023-04-20T23:41:41.605Z,9.4
2023-04-20T23:48:01.602Z,9.4
2023-04-20T23:54:24.508Z,6.5
